sensor_id;sensor_type;location;lat;lon;timestamp;pressure;altitude;pressure_sealevel;temperature;humidity
75747;BME280;64363;52.198;21.020;2023-05-07T21:41:09;101737.78;;;7.13;77.27
75747;BME280;64363;52.198;21.020;2023-05-07T21:43:48;101737.75;;;7.05;77.41
75747;BME280;64363;52.198;21.020;2023-05-07T21:46:14;101729.78;;;7.04;77.29
75747;BME280;64363;52.198;21.020;2023-05-07T21:48:39;101746.56;;;7.03;77.95
75747;BME280;64363;52.198;21.020;2023-05-07T21:51:06;101749.19;;;7.00;77.95
75747;BME280;64363;52.198;21.020;2023-05-07T21:53:33;101749.19;;;6.94;77.95
75747;BME280;64363;52.198;21.020;2023-05-07T21:56:05;101754.47;;;6.92;78.08
75747;BME280;64363;52.198;21.020;2023-05-07T21:58:31;101750.91;;;6.89;78.50
75747;BME280;64363;52.198;21.020;2023-05-07T22:00:57;101741.13;;;6.77;79.00
75747;BME280;64363;52.198;21.020;2023-05-07T22:03:23;101757.94;;;6.82;79.18
75747;BME280;64363;52.198;21.020;2023-05-07T22:05:48;101754.38;;;6.79;78.94
75747;BME280;64363;52.198;21.020;2023-05-07T22:08:14;101750.78;;;6.71;79.36
75747;BME280;64363;52.198;21.020;2023-05-07T22:10:40;101747.25;;;6.66;80.35
75747;BME280;64363;52.198;21.020;2023-05-07T22:13:06;101752.50;;;6.59;80.47
75747;BME280;64363;52.198;21.020;2023-05-07T22:15:38;101751.59;;;6.59;80.33
75747;BME280;64363;52.198;21.020;2023-05-07T22:18:04;101747.19;;;6.56;79.83
75747;BME280;64363;52.198;21.020;2023-05-07T22:20:29;101754.22;;;6.53;80.58
75747;BME280;64363;52.198;21.020;2023-05-07T22:22:55;101752.44;;;6.50;81.48
75747;BME280;64363;52.198;21.020;2023-05-07T22:25:22;101748.03;;;6.49;81.75
75747;BME280;64363;52.198;21.020;2023-05-07T22:27:49;101753.31;;;6.49;80.84
75747;BME280;64363;52.198;21.020;2023-05-07T22:30:15;101760.38;;;6.46;80.67
75747;BME280;64363;52.198;21.020;2023-05-07T22:32:42;101748.81;;;6.39;82.33
75747;BME280;64363;52.198;21.020;2023-05-07T22:35:08;101751.47;;;6.39;82.44
75747;BME280;64363;52.198;21.020;2023-05-07T22:37:35;101750.59;;;6.37;81.83
75747;BME280;64363;52.198;21.020;2023-05-07T22:40:07;101751.44;;;6.35;81.51
75747;BME280;64363;52.198;21.020;2023-05-07T22:42:33;101757.59;;;6.29;81.58
75747;BME280;64363;52.198;21.020;2023-05-07T22:44:58;101752.28;;;6.29;81.58
75747;BME280;64363;52.198;21.020;2023-05-07T22:47:24;101753.16;;;6.28;82.41
75747;BME280;64363;52.198;21.020;2023-05-07T22:49:52;101754.88;;;6.26;82.11
75747;BME280;64363;52.198;21.020;2023-05-07T22:52:18;101754.00;;;6.24;82.18
75747;BME280;64363;52.198;21.020;2023-05-07T22:54:44;101752.19;;;6.17;82.60
75747;BME280;64363;52.198;21.020;2023-05-07T22:57:09;101748.63;;;6.14;82.45
75747;BME280;64363;52.198;21.020;2023-05-07T22:59:35;101752.13;;;6.09;82.65
75747;BME280;64363;52.198;21.020;2023-05-07T23:02:01;101749.47;;;6.09;83.04
75747;BME280;64363;52.198;21.020;2023-05-07T23:04:28;101751.25;;;6.09;84.06
75747;BME280;64363;52.198;21.020;2023-05-07T23:06:54;101755.63;;;6.10;83.25
75747;BME280;64363;52.198;21.020;2023-05-07T23:09:20;101748.53;;;6.03;83.54
75747;BME280;64363;52.198;21.020;2023-05-07T23:11:46;101751.16;;;6.00;83.75
75747;BME280;64363;52.198;21.020;2023-05-07T23:14:18;101756.38;;;5.92;83.96
75747;BME280;64363;52.198;21.020;2023-05-07T23:16:43;101755.50;;;5.95;84.08
75747;BME280;64363;52.198;21.020;2023-05-07T23:19:09;101758.13;;;5.89;84.03
75747;BME280;64363;52.198;21.020;2023-05-07T23:21:36;101750.16;;;5.89;83.61
75747;BME280;64363;52.198;21.020;2023-05-07T23:24:01;101761.53;;;5.83;83.85
75747;BME280;64363;52.198;21.020;2023-05-07T23:26:27;101762.34;;;5.76;84.47
75747;BME280;64363;52.198;21.020;2023-05-07T23:28:53;101757.13;;;5.81;84.72
75747;BME280;64363;52.198;21.020;2023-05-07T23:31:19;101753.59;;;5.82;84.20
75747;BME280;64363;52.198;21.020;2023-05-07T23:33:44;101748.22;;;5.73;83.88
75747;BME280;64363;52.198;21.020;2023-05-07T23:36:10;101753.50;;;5.70;85.27
75747;BME280;64363;52.198;21.020;2023-05-07T23:38:35;101752.59;;;5.71;84.25
75747;BME280;64363;52.198;21.020;2023-05-07T23:41:08;101746.38;;;5.65;84.64
75747;BME280;64363;52.198;21.020;2023-05-07T23:43:41;101753.41;;;5.63;85.36
75747;BME280;64363;52.198;21.020;2023-05-07T23:46:06;101748.09;;;5.60;85.74
75747;BME280;64363;52.198;21.020;2023-05-07T23:48:32;101752.53;;;5.61;85.68
75747;BME280;64363;52.198;21.020;2023-05-07T23:50:58;101752.53;;;5.61;85.30
75747;BME280;64363;52.198;21.020;2023-05-07T23:53:23;101750.72;;;5.57;85.68
75747;BME280;64363;52.198;21.020;2023-05-07T23:55:55;101744.47;;;5.52;85.29
75747;BME280;64363;52.198;21.020;2023-05-07T23:58:21;101742.66;;;5.50;86.23
